sensor_id;sensor_type;location;lat;lon;timestamp;P1;durP1;ratioP1;P2;durP2;ratioP2
3849;SDS011;1940;51.052;13.678;2023-04-12T00:00:29;4.47;;;2.70;;
3849;SDS011;1940;51.052;13.678;2023-04-12T00:02:55;3.90;;;2.70;;
3849;SDS011;1940;51.052;13.678;2023-04-12T00:05:23;4.27;;;3.17;;
3849;SDS011;1940;51.052;13.678;2023-04-12T00:07:51;5.17;;;3.07;;
3849;SDS011;1940;51.052;13.678;2023-04-12T00:10:17;4.20;;;2.50;;
3849;SDS011;1940;51.052;13.678;2023-04-12T00:12:43;4.43;;;3.00;;
3849;SDS011;1940;51.052;13.678;2023-04-12T00:15:10;6.60;;;2.77;;
3849;SDS011;1940;51.052;13.678;2023-04-12T00:17:35;5.30;;;3.33;;
3849;SDS011;1940;51.052;13.678;2023-04-12T00:20:01;4.20;;;2.83;;
3849;SDS011;1940;51.052;13.678;2023-04-12T00:22:29;3.97;;;3.00;;
3849;SDS011;1940;51.052;13.678;2023-04-12T00:24:55;4.03;;;2.77;;
3849;SDS011;1940;51.052;13.678;2023-04-12T00:27:22;5.20;;;2.90;;
3849;SDS011;1940;51.052;13.678;2023-04-12T00:29:47;4.00;;;2.90;;
3849;SDS011;1940;51.052;13.678;2023-04-12T00:32:13;7.20;;;3.00;;
3849;SDS011;1940;51.052;13.678;2023-04-12T00:34:38;9.40;;;3.13;;
3849;SDS011;1940;51.052;13.678;2023-04-12T00:37:04;8.17;;;3.70;;
3849;SDS011;1940;51.052;13.678;2023-04-12T00:39:29;5.50;;;3.13;;
3849;SDS011;1940;51.052;13.678;2023-04-12T00:41:55;5.73;;;2.87;;
3849;SDS011;1940;51.052;13.678;2023-04-12T00:44:24;10.43;;;2.50;;
3849;SDS011;1940;51.052;13.678;2023-04-12T00:46:50;5.33;;;2.90;;
3849;SDS011;1940;51.052;13.678;2023-04-12T00:49:15;7.23;;;3.07;;
3849;SDS011;1940;51.052;13.678;2023-04-12T00:51:41;6.40;;;2.60;;
3849;SDS011;1940;51.052;13.678;2023-04-12T00:54:07;3.20;;;2.40;;
3849;SDS011;1940;51.052;13.678;2023-04-12T00:56:32;8.00;;;3.00;;
3849;SDS011;1940;51.052;13.678;2023-04-12T00:58:58;7.10;;;3.27;;
3849;SDS011;1940;51.052;13.678;2023-04-12T01:01:25;7.67;;;2.70;;
3849;SDS011;1940;51.052;13.678;2023-04-12T01:03:52;5.93;;;2.73;;
3849;SDS011;1940;51.052;13.678;2023-04-12T01:09:41;7.10;;;3.43;;
3849;SDS011;1940;51.052;13.678;2023-04-12T01:14:45;4.27;;;3.20;;
3849;SDS011;1940;51.052;13.678;2023-04-12T01:17:45;6.67;;;3.30;;
3849;SDS011;1940;51.052;13.678;2023-04-12T01:20:18;6.70;;;3.50;;
3849;SDS011;1940;51.052;13.678;2023-04-12T01:28:46;3.33;;;2.37;;
3849;SDS011;1940;51.052;13.678;2023-04-12T01:31:16;5.27;;;3.50;;
3849;SDS011;1940;51.052;13.678;2023-04-12T01:33:43;6.33;;;3.63;;
3849;SDS011;1940;51.052;13.678;2023-04-12T01:36:12;8.40;;;3.23;;
3849;SDS011;1940;51.052;13.678;2023-04-12T01:38:41;6.73;;;3.60;;
3849;SDS011;1940;51.052;13.678;2023-04-12T01:41:07;5.47;;;3.20;;
3849;SDS011;1940;51.052;13.678;2023-04-12T01:43:39;3.63;;;2.93;;
3849;SDS011;1940;51.052;13.678;2023-04-12T01:46:06;6.77;;;3.67;;
3849;SDS011;1940;51.052;13.678;2023-04-12T01:48:32;4.70;;;3.03;;
3849;SDS011;1940;51.052;13.678;2023-04-12T01:51:13;9.07;;;4.40;;
3849;SDS011;1940;51.052;13.678;2023-04-12T01:54:00;7.10;;;3.80;;
3849;SDS011;1940;51.052;13.678;2023-04-12T01:56:35;5.70;;;3.20;;
3849;SDS011;1940;51.052;13.678;2023-04-12T01:59:01;4.77;;;3.10;;
3849;SDS011;1940;51.052;13.678;2023-04-12T02:01:28;10.13;;;4.10;;
3849;SDS011;1940;51.052;13.678;2023-04-12T02:03:55;5.20;;;3.43;;
3849;SDS011;1940;51.052;13.678;2023-04-12T02:06:24;9.90;;;3.53;;
3849;SDS011;1940;51.052;13.678;2023-04-12T02:08:58;6.77;;;3.50;;
3849;SDS011;1940;51.052;13.678;2023-04-12T02:11:26;4.60;;;3.10;;
3849;SDS011;1940;51.052;13.678;2023-04-12T02:13:52;4.40;;;2.90;;
3849;SDS011;1940;51.052;13.678;2023-04-12T02:16:18;8.03;;;3.50;;
3849;SDS011;1940;51.052;13.678;2023-04-12T02:18:44;8.20;;;4.17;;
3849;SDS011;1940;51.052;13.678;2023-04-12T02:21:10;5.30;;;3.80;;
3849;SDS011;1940;51.052;13.678;2023-04-12T02:23:36;9.73;;;3.67;;
3849;SDS011;1940;51.052;13.678;2023-04-12T02:26:01;5.37;;;3.67;;
3849;SDS011;1940;51.052;13.678;2023-04-12T02:28:27;7.77;;;3.20;;
3849;SDS011;1940;51.052;13.678;2023-04-12T02:30:53;6.83;;;3.77;;
3849;SDS011;1940;51.052;13.678;2023-04-12T02:33:18;6.33;;;3.53;;
3849;SDS011;1940;51.052;13.678;2023-04-12T02:35:49;7.70;;;4.80;;
3849;SDS011;1940;51.052;13.678;2023-04-12T02:38:15;7.63;;;3.80;;
3849;SDS011;1940;51.052;13.678;2023-04-12T02:40:40;6.60;;;4.03;;
3849;SDS011;1940;51.052;13.678;2023-04-12T02:43:06;6.07;;;3.43;;
3849;SDS011;1940;51.052;13.678;2023-04-12T02:45:32;6.67;;;3.90;;
3849;SDS011;1940;51.052;13.678;2023-04-12T02:47:58;9.73;;;3.73;;
3849;SDS011;1940;51.052;13.678;2023-04-12T02:50:23;6.60;;;3.10;;
3849;SDS011;1940;51.052;13.678;2023-04-12T02:52:49;6.90;;;3.53;;
3849;SDS011;1940;51.052;13.678;2023-04-12T02:55:14;6.83;;;3.67;;
3849;SDS011;1940;51.052;13.678;2023-04-12T02:57:42;6.53;;;3.83;;
3849;SDS011;1940;51.052;13.678;2023-04-12T03:00:09;5.77;;;3.33;;
3849;SDS011;1940;51.052;13.678;2023-04-12T03:02:36;9.80;;;4.27;;
3849;SDS011;1940;51.052;13.678;2023-04-12T03:05:02;6.00;;;3.63;;
3849;SDS011;1940;51.052;13.678;2023-04-12T03:07:29;5.70;;;3.67;;
3849;SDS011;1940;51.052;13.678;2023-04-12T03:09:54;7.50;;;3.50;;
3849;SDS011;1940;51.052;13.678;2023-04-12T03:12:20;7.40;;;4.40;;
3849;SDS011;1940;51.052;13.678;2023-04-12T03:14:46;10.10;;;4.13;;
3849;SDS011;1940;51.052;13.678;2023-04-12T03:17:11;6.40;;;3.60;;
3849;SDS011;1940;51.052;13.678;2023-04-12T03:19:37;7.73;;;3.77;;
3849;SDS011;1940;51.052;13.678;2023-04-12T03:22:03;6.87;;;3.80;;
3849;SDS011;1940;51.052;13.678;2023-04-12T03:24:30;7.63;;;3.50;;
3849;SDS011;1940;51.052;13.678;2023-04-12T03:27:01;7.70;;;3.60;;
3849;SDS011;1940;51.052;13.678;2023-04-12T03:29:28;6.97;;;3.50;;
3849;SDS011;1940;51.052;13.678;2023-04-12T03:31:57;10.07;;;4.20;;
3849;SDS011;1940;51.052;13.678;2023-04-12T03:34:23;5.87;;;3.67;;
3849;SDS011;1940;51.052;13.678;2023-04-12T03:36:51;7.70;;;4.47;;
3849;SDS011;1940;51.052;13.678;2023-04-12T03:39:17;8.47;;;3.90;;
3849;SDS011;1940;51.052;13.678;2023-04-12T03:41:43;6.57;;;3.57;;
3849;SDS011;1940;51.052;13.678;2023-04-12T03:44:08;7.23;;;3.80;;
3849;SDS011;1940;51.052;13.678;2023-04-12T03:46:34;8.80;;;4.40;;
3849;SDS011;1940;51.052;13.678;2023-04-12T03:49:00;5.13;;;3.70;;
3849;SDS011;1940;51.052;13.678;2023-04-12T03:51:26;5.13;;;3.50;;
3849;SDS011;1940;51.052;13.678;2023-04-12T03:53:54;8.60;;;3.97;;
3849;SDS011;1940;51.052;13.678;2023-04-12T03:56:20;14.60;;;3.93;;
3849;SDS011;1940;51.052;13.678;2023-04-12T03:58:46;6.90;;;4.10;;
3849;SDS011;1940;51.052;13.678;2023-04-12T04:01:11;6.67;;;3.37;;
3849;SDS011;1940;51.052;13.678;2023-04-12T04:03:38;11.87;;;4.00;;
3849;SDS011;1940;51.052;13.678;2023-04-12T04:06:05;6.03;;;3.57;;
3849;SDS011;1940;51.052;13.678;2023-04-12T04:08:32;6.23;;;3.83;;
3849;SDS011;1940;51.052;13.678;2023-04-12T04:10:57;7.30;;;3.30;;
3849;SDS011;1940;51.052;13.678;2023-04-12T04:13:23;7.10;;;3.00;;
3849;SDS011;1940;51.052;13.678;2023-04-12T04:15:50;4.70;;;3.47;;
3849;SDS011;1940;51.052;13.678;2023-04-12T04:18:29;8.20;;;3.50;;
3849;SDS011;1940;51.052;13.678;2023-04-12T04:20:55;4.60;;;3.33;;
3849;SDS011;1940;51.052;13.678;2023-04-12T04:23:21;5.17;;;3.10;;
3849;SDS011;1940;51.052;13.678;2023-04-12T04:25:47;5.30;;;3.10;;
3849;SDS011;1940;51.052;13.678;2023-04-12T04:28:13;6.77;;;3.47;;
3849;SDS011;1940;51.052;13.678;2023-04-12T04:30:40;4.80;;;3.23;;
3849;SDS011;1940;51.052;13.678;2023-04-12T04:33:06;5.60;;;3.37;;
3849;SDS011;1940;51.052;13.678;2023-04-12T04:35:32;7.87;;;3.87;;
3849;SDS011;1940;51.052;13.678;2023-04-12T04:37:57;5.73;;;3.40;;
3849;SDS011;1940;51.052;13.678;2023-04-12T04:40:25;5.37;;;2.80;;
3849;SDS011;1940;51.052;13.678;2023-04-12T04:42:51;5.77;;;3.23;;
3849;SDS011;1940;51.052;13.678;2023-04-12T04:45:22;5.37;;;3.17;;
3849;SDS011;1940;51.052;13.678;2023-04-12T04:47:52;6.87;;;3.53;;
3849;SDS011;1940;51.052;13.678;2023-04-12T04:50:19;4.80;;;2.97;;
3849;SDS011;1940;51.052;13.678;2023-04-12T04:52:47;6.10;;;3.00;;
3849;SDS011;1940;51.052;13.678;2023-04-12T04:55:13;5.40;;;3.57;;
3849;SDS011;1940;51.052;13.678;2023-04-12T04:57:41;4.00;;;3.00;;
3849;SDS011;1940;51.052;13.678;2023-04-12T05:00:07;6.67;;;3.13;;
3849;SDS011;1940;51.052;13.678;2023-04-12T05:02:36;6.73;;;3.07;;
3849;SDS011;1940;51.052;13.678;2023-04-12T05:05:03;3.30;;;2.40;;
3849;SDS011;1940;51.052;13.678;2023-04-12T05:07:30;4.40;;;2.40;;
3849;SDS011;1940;51.052;13.678;2023-04-12T05:09:56;5.67;;;2.40;;
3849;SDS011;1940;51.052;13.678;2023-04-12T05:12:21;5.37;;;2.50;;
3849;SDS011;1940;51.052;13.678;2023-04-12T05:14:47;6.30;;;2.40;;
3849;SDS011;1940;51.052;13.678;2023-04-12T05:17:12;4.67;;;2.70;;
3849;SDS011;1940;51.052;13.678;2023-04-12T05:19:38;4.40;;;2.47;;
3849;SDS011;1940;51.052;13.678;2023-04-12T05:22:05;4.80;;;2.47;;
3849;SDS011;1940;51.052;13.678;2023-04-12T05:24:30;3.23;;;2.50;;
3849;SDS011;1940;51.052;13.678;2023-04-12T05:26:56;8.43;;;2.57;;
3849;SDS011;1940;51.052;13.678;2023-04-12T05:29:22;5.80;;;2.20;;
3849;SDS011;1940;51.052;13.678;2023-04-12T05:31:48;5.37;;;3.33;;
3849;SDS011;1940;51.052;13.678;2023-04-12T05:34:13;5.33;;;2.67;;
3849;SDS011;1940;51.052;13.678;2023-04-12T05:36:39;2.83;;;2.23;;
3849;SDS011;1940;51.052;13.678;2023-04-12T05:39:05;3.30;;;1.97;;
3849;SDS011;1940;51.052;13.678;2023-04-12T05:41:30;2.33;;;1.90;;
3849;SDS011;1940;51.052;13.678;2023-04-12T05:43:55;3.00;;;1.80;;
3849;SDS011;1940;51.052;13.678;2023-04-12T05:46:21;3.87;;;2.30;;
3849;SDS011;1940;51.052;13.678;2023-04-12T05:48:46;3.10;;;1.93;;
3849;SDS011;1940;51.052;13.678;2023-04-12T05:51:12;3.13;;;2.37;;
3849;SDS011;1940;51.052;13.678;2023-04-12T05:53:37;5.80;;;1.97;;
3849;SDS011;1940;51.052;13.678;2023-04-12T05:56:03;7.80;;;2.40;;
3849;SDS011;1940;51.052;13.678;2023-04-12T05:58:29;4.47;;;2.30;;
3849;SDS011;1940;51.052;13.678;2023-04-12T06:00:54;3.33;;;1.90;;
3849;SDS011;1940;51.052;13.678;2023-04-12T06:03:20;3.40;;;2.40;;
3849;SDS011;1940;51.052;13.678;2023-04-12T06:05:47;2.53;;;2.10;;
3849;SDS011;1940;51.052;13.678;2023-04-12T06:08:13;2.80;;;2.20;;
3849;SDS011;1940;51.052;13.678;2023-04-12T06:10:39;7.67;;;2.73;;
3849;SDS011;1940;51.052;13.678;2023-04-12T06:13:04;8.17;;;3.30;;
3849;SDS011;1940;51.052;13.678;2023-04-12T06:15:30;3.37;;;2.23;;
3849;SDS011;1940;51.052;13.678;2023-04-12T06:17:56;3.37;;;2.40;;
3849;SDS011;1940;51.052;13.678;2023-04-12T06:20:23;4.10;;;2.50;;
3849;SDS011;1940;51.052;13.678;2023-04-12T06:22:48;3.67;;;2.00;;
3849;SDS011;1940;51.052;13.678;2023-04-12T06:25:14;3.00;;;1.90;;
3849;SDS011;1940;51.052;13.678;2023-04-12T06:27:40;5.20;;;2.80;;
3849;SDS011;1940;51.052;13.678;2023-04-12T06:30:06;3.43;;;2.30;;
3849;SDS011;1940;51.052;13.678;2023-04-12T06:32:32;4.73;;;2.57;;
3849;SDS011;1940;51.052;13.678;2023-04-12T06:34:58;11.37;;;2.57;;
3849;SDS011;1940;51.052;13.678;2023-04-12T06:37:23;4.47;;;2.87;;
3849;SDS011;1940;51.052;13.678;2023-04-12T06:39:49;4.90;;;2.63;;
3849;SDS011;1940;51.052;13.678;2023-04-12T06:42:14;6.90;;;2.73;;
3849;SDS011;1940;51.052;13.678;2023-04-12T06:44:41;7.60;;;3.40;;
3849;SDS011;1940;51.052;13.678;2023-04-12T06:47:07;5.07;;;2.80;;
3849;SDS011;1940;51.052;13.678;2023-04-12T06:49:33;4.10;;;2.60;;
3849;SDS011;1940;51.052;13.678;2023-04-12T06:51:58;4.20;;;2.90;;
3849;SDS011;1940;51.052;13.678;2023-04-12T06:54:24;5.70;;;2.87;;
3849;SDS011;1940;51.052;13.678;2023-04-12T06:56:49;4.57;;;3.07;;
3849;SDS011;1940;51.052;13.678;2023-04-12T06:59:15;4.10;;;3.00;;
3849;SDS011;1940;51.052;13.678;2023-04-12T07:01:41;9.07;;;3.17;;
3849;SDS011;1940;51.052;13.678;2023-04-12T07:04:07;8.47;;;3.00;;
3849;SDS011;1940;51.052;13.678;2023-04-12T07:06:32;5.73;;;3.10;;
3849;SDS011;1940;51.052;13.678;2023-04-12T07:08:58;6.67;;;3.03;;
3849;SDS011;1940;51.052;13.678;2023-04-12T07:11:23;5.30;;;3.20;;
3849;SDS011;1940;51.052;13.678;2023-04-12T07:13:49;6.70;;;3.60;;
3849;SDS011;1940;51.052;13.678;2023-04-12T07:16:15;5.10;;;3.33;;
3849;SDS011;1940;51.052;13.678;2023-04-12T07:18:41;5.17;;;3.40;;
3849;SDS011;1940;51.052;13.678;2023-04-12T07:21:07;7.00;;;3.23;;
3849;SDS011;1940;51.052;13.678;2023-04-12T07:23:32;7.47;;;3.60;;
3849;SDS011;1940;51.052;13.678;2023-04-12T07:25:58;4.33;;;3.20;;
3849;SDS011;1940;51.052;13.678;2023-04-12T07:28:24;5.90;;;3.53;;
3849;SDS011;1940;51.052;13.678;2023-04-12T07:30:50;7.60;;;3.97;;
3849;SDS011;1940;51.052;13.678;2023-04-12T07:33:15;7.20;;;3.30;;
3849;SDS011;1940;51.052;13.678;2023-04-12T07:35:41;5.57;;;3.33;;
3849;SDS011;1940;51.052;13.678;2023-04-12T07:38:06;7.87;;;3.47;;
3849;SDS011;1940;51.052;13.678;2023-04-12T07:40:32;7.53;;;4.50;;
3849;SDS011;1940;51.052;13.678;2023-04-12T07:42:57;6.27;;;3.30;;
3849;SDS011;1940;51.052;13.678;2023-04-12T07:45:23;7.60;;;4.03;;
3849;SDS011;1940;51.052;13.678;2023-04-12T07:47:48;7.10;;;4.03;;
3849;SDS011;1940;51.052;13.678;2023-04-12T07:50:14;5.43;;;3.60;;
3849;SDS011;1940;51.052;13.678;2023-04-12T07:52:40;5.70;;;3.53;;
3849;SDS011;1940;51.052;13.678;2023-04-12T07:55:06;6.80;;;3.70;;
3849;SDS011;1940;51.052;13.678;2023-04-12T07:57:32;8.63;;;3.70;;
3849;SDS011;1940;51.052;13.678;2023-04-12T07:59:57;6.73;;;3.73;;
3849;SDS011;1940;51.052;13.678;2023-04-12T08:02:23;7.83;;;3.90;;
3849;SDS011;1940;51.052;13.678;2023-04-12T08:04:52;4.00;;;3.47;;
3849;SDS011;1940;51.052;13.678;2023-04-12T08:07:18;9.80;;;3.80;;
3849;SDS011;1940;51.052;13.678;2023-04-12T08:09:44;5.40;;;3.77;;
3849;SDS011;1940;51.052;13.678;2023-04-12T08:12:10;4.80;;;3.47;;
3849;SDS011;1940;51.052;13.678;2023-04-12T08:14:36;4.80;;;2.97;;
3849;SDS011;1940;51.052;13.678;2023-04-12T08:17:01;6.27;;;2.90;;
3849;SDS011;1940;51.052;13.678;2023-04-12T08:19:27;3.67;;;2.43;;
3849;SDS011;1940;51.052;13.678;2023-04-12T08:21:53;4.17;;;2.10;;
3849;SDS011;1940;51.052;13.678;2023-04-12T08:24:18;4.80;;;2.50;;
3849;SDS011;1940;51.052;13.678;2023-04-12T08:26:44;3.03;;;1.50;;
3849;SDS011;1940;51.052;13.678;2023-04-12T08:29:10;7.13;;;1.60;;
3849;SDS011;1940;51.052;13.678;2023-04-12T08:31:36;4.47;;;1.30;;
3849;SDS011;1940;51.052;13.678;2023-04-12T08:34:02;5.60;;;1.50;;
3849;SDS011;1940;51.052;13.678;2023-04-12T08:36:27;2.60;;;1.63;;
3849;SDS011;1940;51.052;13.678;2023-04-12T08:38:56;2.43;;;1.60;;
3849;SDS011;1940;51.052;13.678;2023-04-12T08:41:22;3.40;;;1.60;;
3849;SDS011;1940;51.052;13.678;2023-04-12T08:43:48;3.30;;;1.50;;
3849;SDS011;1940;51.052;13.678;2023-04-12T08:46:15;3.30;;;1.40;;
3849;SDS011;1940;51.052;13.678;2023-04-12T08:48:43;2.63;;;1.30;;
3849;SDS011;1940;51.052;13.678;2023-04-12T08:51:12;2.70;;;1.30;;
3849;SDS011;1940;51.052;13.678;2023-04-12T08:53:41;3.53;;;1.37;;
3849;SDS011;1940;51.052;13.678;2023-04-12T08:56:08;5.03;;;1.30;;
3849;SDS011;1940;51.052;13.678;2023-04-12T08:58:36;4.87;;;1.47;;
3849;SDS011;1940;51.052;13.678;2023-04-12T09:01:06;5.10;;;1.80;;
3849;SDS011;1940;51.052;13.678;2023-04-12T09:03:38;1.63;;;1.10;;
3849;SDS011;1940;51.052;13.678;2023-04-12T09:06:03;2.50;;;1.40;;
3849;SDS011;1940;51.052;13.678;2023-04-12T09:08:29;2.83;;;1.60;;
3849;SDS011;1940;51.052;13.678;2023-04-12T09:10:55;2.40;;;1.53;;
3849;SDS011;1940;51.052;13.678;2023-04-12T09:13:34;2.13;;;1.23;;
3849;SDS011;1940;51.052;13.678;2023-04-12T09:16:01;2.93;;;1.07;;
3849;SDS011;1940;51.052;13.678;2023-04-12T09:18:27;1.90;;;1.13;;
3849;SDS011;1940;51.052;13.678;2023-04-12T09:21:26;1.43;;;1.00;;
3849;SDS011;1940;51.052;13.678;2023-04-12T09:23:44;2.70;;;1.50;;
3849;SDS011;1940;51.052;13.678;2023-04-12T09:26:27;4.23;;;1.37;;
3849;SDS011;1940;51.052;13.678;2023-04-12T09:28:53;6.10;;;1.27;;
3849;SDS011;1940;51.052;13.678;2023-04-12T09:31:19;3.63;;;1.50;;
3849;SDS011;1940;51.052;13.678;2023-04-12T09:33:44;4.30;;;1.40;;
3849;SDS011;1940;51.052;13.678;2023-04-12T09:36:10;4.67;;;1.47;;
3849;SDS011;1940;51.052;13.678;2023-04-12T09:38:41;3.00;;;1.50;;
3849;SDS011;1940;51.052;13.678;2023-04-12T09:41:22;3.30;;;1.47;;
3849;SDS011;1940;51.052;13.678;2023-04-12T09:43:49;2.90;;;1.30;;
3849;SDS011;1940;51.052;13.678;2023-04-12T09:46:15;5.03;;;1.60;;
3849;SDS011;1940;51.052;13.678;2023-04-12T09:48:41;4.77;;;1.37;;
3849;SDS011;1940;51.052;13.678;2023-04-12T09:51:22;3.13;;;1.20;;
3849;SDS011;1940;51.052;13.678;2023-04-12T09:53:58;2.70;;;1.30;;
3849;SDS011;1940;51.052;13.678;2023-04-12T09:56:29;1.57;;;1.20;;
3849;SDS011;1940;51.052;13.678;2023-04-12T09:58:59;4.73;;;1.90;;
3849;SDS011;1940;51.052;13.678;2023-04-12T10:01:27;3.17;;;1.40;;
3849;SDS011;1940;51.052;13.678;2023-04-12T10:03:56;3.07;;;1.20;;
3849;SDS011;1940;51.052;13.678;2023-04-12T10:06:23;2.80;;;1.40;;
3849;SDS011;1940;51.052;13.678;2023-04-12T10:08:50;3.23;;;1.83;;
3849;SDS011;1940;51.052;13.678;2023-04-12T10:11:17;1.97;;;1.13;;
3849;SDS011;1940;51.052;13.678;2023-04-12T10:13:43;3.97;;;1.20;;
3849;SDS011;1940;51.052;13.678;2023-04-12T10:16:09;4.40;;;1.40;;
3849;SDS011;1940;51.052;13.678;2023-04-12T10:18:37;3.50;;;1.30;;
3849;SDS011;1940;51.052;13.678;2023-04-12T10:21:03;3.83;;;1.50;;
3849;SDS011;1940;51.052;13.678;2023-04-12T10:23:33;5.90;;;1.40;;
3849;SDS011;1940;51.052;13.678;2023-04-12T10:25:59;2.87;;;1.70;;
3849;SDS011;1940;51.052;13.678;2023-04-12T10:28:26;2.90;;;1.20;;
3849;SDS011;1940;51.052;13.678;2023-04-12T10:30:51;3.37;;;1.53;;
3849;SDS011;1940;51.052;13.678;2023-04-12T10:33:25;2.87;;;1.40;;
3849;SDS011;1940;51.052;13.678;2023-04-12T10:36:01;10.50;;;1.33;;
3849;SDS011;1940;51.052;13.678;2023-04-12T10:38:30;1.40;;;1.20;;
3849;SDS011;1940;51.052;13.678;2023-04-12T10:41:19;3.53;;;1.50;;
3849;SDS011;1940;51.052;13.678;2023-04-12T10:43:49;2.47;;;1.30;;
3849;SDS011;1940;51.052;13.678;2023-04-12T10:46:45;3.97;;;1.50;;
3849;SDS011;1940;51.052;13.678;2023-04-12T10:49:11;3.83;;;1.73;;
3849;SDS011;1940;51.052;13.678;2023-04-12T10:51:37;4.47;;;1.50;;
3849;SDS011;1940;51.052;13.678;2023-04-12T10:56:45;3.67;;;1.60;;
3849;SDS011;1940;51.052;13.678;2023-04-12T10:59:12;3.47;;;1.73;;
3849;SDS011;1940;51.052;13.678;2023-04-12T11:01:38;4.73;;;1.70;;
3849;SDS011;1940;51.052;13.678;2023-04-12T11:09:18;3.37;;;1.90;;
3849;SDS011;1940;51.052;13.678;2023-04-12T11:11:44;4.53;;;2.17;;
3849;SDS011;1940;51.052;13.678;2023-04-12T11:14:10;3.90;;;2.30;;
3849;SDS011;1940;51.052;13.678;2023-04-12T11:19:30;8.17;;;3.10;;
3849;SDS011;1940;51.052;13.678;2023-04-12T11:21:56;7.07;;;2.80;;
3849;SDS011;1940;51.052;13.678;2023-04-12T11:24:24;6.77;;;3.07;;
3849;SDS011;1940;51.052;13.678;2023-04-12T11:26:50;4.50;;;2.70;;
3849;SDS011;1940;51.052;13.678;2023-04-12T11:29:22;4.47;;;2.53;;
3849;SDS011;1940;51.052;13.678;2023-04-12T11:31:47;7.53;;;3.13;;
3849;SDS011;1940;51.052;13.678;2023-04-12T11:34:14;4.00;;;3.00;;
3849;SDS011;1940;51.052;13.678;2023-04-12T11:36:41;4.57;;;2.50;;
3849;SDS011;1940;51.052;13.678;2023-04-12T11:39:09;7.87;;;2.60;;
3849;SDS011;1940;51.052;13.678;2023-04-12T11:41:34;6.93;;;2.90;;
3849;SDS011;1940;51.052;13.678;2023-04-12T11:44:00;7.73;;;3.10;;
3849;SDS011;1940;51.052;13.678;2023-04-12T11:46:25;4.10;;;2.87;;
3849;SDS011;1940;51.052;13.678;2023-04-12T11:48:57;7.50;;;3.10;;
3849;SDS011;1940;51.052;13.678;2023-04-12T11:51:23;4.90;;;3.13;;
3849;SDS011;1940;51.052;13.678;2023-04-12T11:53:52;3.40;;;2.73;;
3849;SDS011;1940;51.052;13.678;2023-04-12T11:56:18;5.77;;;2.90;;
3849;SDS011;1940;51.052;13.678;2023-04-12T11:58:47;6.27;;;3.00;;
3849;SDS011;1940;51.052;13.678;2023-04-12T12:01:13;5.83;;;2.33;;
3849;SDS011;1940;51.052;13.678;2023-04-12T12:03:40;4.57;;;2.23;;
3849;SDS011;1940;51.052;13.678;2023-04-12T12:06:06;4.23;;;2.30;;
3849;SDS011;1940;51.052;13.678;2023-04-12T12:08:32;4.07;;;2.20;;
3849;SDS011;1940;51.052;13.678;2023-04-12T12:10:58;2.13;;;1.90;;
3849;SDS011;1940;51.052;13.678;2023-04-12T12:13:24;3.40;;;2.20;;
3849;SDS011;1940;51.052;13.678;2023-04-12T12:15:53;3.60;;;2.00;;
3849;SDS011;1940;51.052;13.678;2023-04-12T12:18:18;5.10;;;2.40;;
3849;SDS011;1940;51.052;13.678;2023-04-12T12:20:49;4.80;;;2.30;;
3849;SDS011;1940;51.052;13.678;2023-04-12T12:23:30;11.67;;;2.23;;
3849;SDS011;1940;51.052;13.678;2023-04-12T12:25:57;4.60;;;2.20;;
3849;SDS011;1940;51.052;13.678;2023-04-12T12:28:23;3.63;;;2.30;;
3849;SDS011;1940;51.052;13.678;2023-04-12T12:30:51;3.37;;;2.10;;
3849;SDS011;1940;51.052;13.678;2023-04-12T12:33:18;5.03;;;2.37;;
3849;SDS011;1940;51.052;13.678;2023-04-12T12:35:44;7.70;;;2.50;;
3849;SDS011;1940;51.052;13.678;2023-04-12T12:38:10;3.23;;;2.20;;
3849;SDS011;1940;51.052;13.678;2023-04-12T12:40:35;4.07;;;2.70;;
3849;SDS011;1940;51.052;13.678;2023-04-12T12:43:02;3.97;;;2.67;;
3849;SDS011;1940;51.052;13.678;2023-04-12T12:45:28;6.07;;;2.63;;
3849;SDS011;1940;51.052;13.678;2023-04-12T12:47:59;6.20;;;4.20;;
3849;SDS011;1940;51.052;13.678;2023-04-12T12:50:29;5.13;;;2.90;;
3849;SDS011;1940;51.052;13.678;2023-04-12T12:52:56;5.00;;;2.13;;
3849;SDS011;1940;51.052;13.678;2023-04-12T12:55:24;3.37;;;2.10;;
3849;SDS011;1940;51.052;13.678;2023-04-12T12:57:51;4.60;;;2.10;;
3849;SDS011;1940;51.052;13.678;2023-04-12T13:00:18;4.37;;;1.90;;
3849;SDS011;1940;51.052;13.678;2023-04-12T13:02:45;6.30;;;2.17;;
3849;SDS011;1940;51.052;13.678;2023-04-12T13:05:12;4.40;;;1.57;;
3849;SDS011;1940;51.052;13.678;2023-04-12T13:07:38;3.10;;;1.80;;
3849;SDS011;1940;51.052;13.678;2023-04-12T13:10:04;2.60;;;1.50;;
3849;SDS011;1940;51.052;13.678;2023-04-12T13:12:30;3.93;;;2.27;;
3849;SDS011;1940;51.052;13.678;2023-04-12T13:14:56;4.20;;;2.10;;
3849;SDS011;1940;51.052;13.678;2023-04-12T13:17:22;3.87;;;1.70;;
3849;SDS011;1940;51.052;13.678;2023-04-12T13:19:47;3.53;;;2.00;;
3849;SDS011;1940;51.052;13.678;2023-04-12T13:22:13;4.00;;;2.07;;
3849;SDS011;1940;51.052;13.678;2023-04-12T13:24:39;5.83;;;1.50;;
3849;SDS011;1940;51.052;13.678;2023-04-12T13:27:05;3.00;;;1.60;;
3849;SDS011;1940;51.052;13.678;2023-04-12T13:29:32;2.40;;;1.67;;
3849;SDS011;1940;51.052;13.678;2023-04-12T13:31:57;2.60;;;1.43;;
3849;SDS011;1940;51.052;13.678;2023-04-12T13:34:23;2.97;;;1.40;;
3849;SDS011;1940;51.052;13.678;2023-04-12T13:36:48;2.20;;;1.30;;
3849;SDS011;1940;51.052;13.678;2023-04-12T13:39:14;2.80;;;1.47;;
3849;SDS011;1940;51.052;13.678;2023-04-12T13:41:40;6.63;;;1.30;;
3849;SDS011;1940;51.052;13.678;2023-04-12T13:44:05;3.07;;;1.63;;
3849;SDS011;1940;51.052;13.678;2023-04-12T13:46:31;8.00;;;1.27;;
3849;SDS011;1940;51.052;13.678;2023-04-12T13:48:56;4.00;;;1.33;;
3849;SDS011;1940;51.052;13.678;2023-04-12T13:51:22;1.50;;;1.10;;
3849;SDS011;1940;51.052;13.678;2023-04-12T13:53:47;1.80;;;1.40;;
3849;SDS011;1940;51.052;13.678;2023-04-12T13:56:13;6.60;;;1.80;;
3849;SDS011;1940;51.052;13.678;2023-04-12T13:58:40;3.70;;;1.83;;
3849;SDS011;1940;51.052;13.678;2023-04-12T14:01:06;3.03;;;1.53;;
3849;SDS011;1940;51.052;13.678;2023-04-12T14:03:32;3.93;;;1.70;;
3849;SDS011;1940;51.052;13.678;2023-04-12T14:05:58;2.77;;;1.57;;
3849;SDS011;1940;51.052;13.678;2023-04-12T14:08:25;3.20;;;1.30;;
3849;SDS011;1940;51.052;13.678;2023-04-12T14:10:51;2.73;;;1.90;;
3849;SDS011;1940;51.052;13.678;2023-04-12T14:13:18;5.10;;;1.60;;
3849;SDS011;1940;51.052;13.678;2023-04-12T14:15:45;4.83;;;1.67;;
3849;SDS011;1940;51.052;13.678;2023-04-12T14:18:11;3.23;;;1.57;;
3849;SDS011;1940;51.052;13.678;2023-04-12T14:20:36;4.27;;;1.80;;
3849;SDS011;1940;51.052;13.678;2023-04-12T14:23:02;5.20;;;2.00;;
3849;SDS011;1940;51.052;13.678;2023-04-12T14:25:28;3.10;;;1.80;;
3849;SDS011;1940;51.052;13.678;2023-04-12T14:27:53;2.87;;;1.80;;
3849;SDS011;1940;51.052;13.678;2023-04-12T14:30:19;2.80;;;1.70;;
3849;SDS011;1940;51.052;13.678;2023-04-12T14:32:45;3.07;;;2.07;;
3849;SDS011;1940;51.052;13.678;2023-04-12T14:35:10;4.67;;;1.93;;
3849;SDS011;1940;51.052;13.678;2023-04-12T14:37:37;4.60;;;1.90;;
3849;SDS011;1940;51.052;13.678;2023-04-12T14:40:03;5.37;;;2.20;;
3849;SDS011;1940;51.052;13.678;2023-04-12T14:42:32;4.57;;;2.23;;
3849;SDS011;1940;51.052;13.678;2023-04-12T14:44:59;3.40;;;2.17;;
3849;SDS011;1940;51.052;13.678;2023-04-12T14:47:24;5.40;;;2.20;;
3849;SDS011;1940;51.052;13.678;2023-04-12T14:49:50;4.13;;;2.30;;
3849;SDS011;1940;51.052;13.678;2023-04-12T14:52:15;6.93;;;2.40;;
3849;SDS011;1940;51.052;13.678;2023-04-12T14:54:41;6.87;;;2.57;;
3849;SDS011;1940;51.052;13.678;2023-04-12T14:57:07;5.67;;;2.40;;
3849;SDS011;1940;51.052;13.678;2023-04-12T14:59:33;4.67;;;3.07;;
3849;SDS011;1940;51.052;13.678;2023-04-12T15:01:59;4.63;;;2.70;;
3849;SDS011;1940;51.052;13.678;2023-04-12T15:04:25;6.03;;;3.30;;
3849;SDS011;1940;51.052;13.678;2023-04-12T15:06:50;5.90;;;2.90;;
3849;SDS011;1940;51.052;13.678;2023-04-12T15:09:16;3.20;;;2.57;;
3849;SDS011;1940;51.052;13.678;2023-04-12T15:11:42;5.73;;;2.70;;
3849;SDS011;1940;51.052;13.678;2023-04-12T15:14:10;4.50;;;2.50;;
3849;SDS011;1940;51.052;13.678;2023-04-12T15:16:42;4.77;;;3.10;;
3849;SDS011;1940;51.052;13.678;2023-04-12T15:22:33;2.90;;;2.57;;
3849;SDS011;1940;51.052;13.678;2023-04-12T15:25:02;5.53;;;3.20;;